createdAt,value
2022-12-05T00:01:47.519Z,6.10
2022-12-05T00:04:15.282Z,6.20
2022-12-05T00:06:42.991Z,6.20
2022-12-05T00:09:12.254Z,6.10
2022-12-05T00:11:42.717Z,6.10
2022-12-05T00:14:11.363Z,6.10
2022-12-05T00:16:41.246Z,6.00
2022-12-05T00:19:10.938Z,6.00
2022-12-05T00:21:38.400Z,5.90
2022-12-05T00:24:07.744Z,5.90
2022-12-05T00:26:35.995Z,5.90
2022-12-05T00:29:04.089Z,5.90
2022-12-05T00:31:31.872Z,5.90
2022-12-05T00:34:02.896Z,5.90
2022-12-05T00:36:33.467Z,5.90
2022-12-05T00:39:04.559Z,5.90
2022-12-05T00:41:31.931Z,5.90
2022-12-05T00:44:01.093Z,5.90
2022-12-05T00:46:30.124Z,6.00
2022-12-05T00:48:58.680Z,5.90
2022-12-05T00:51:29.863Z,5.90
2022-12-05T00:54:02.196Z,5.90
2022-12-05T00:56:30.786Z,6.00
2022-12-05T00:59:00.503Z,6.00
2022-12-05T01:01:33.010Z,6.00
2022-12-05T01:04:03.663Z,6.00
2022-12-05T01:06:31.343Z,6.10
2022-12-05T01:08:58.864Z,6.10
2022-12-05T01:11:27.575Z,6.10
2022-12-05T01:13:55.517Z,6.00
2022-12-05T01:16:35.218Z,6.00
2022-12-05T01:19:06.808Z,5.70
2022-12-05T01:21:34.207Z,5.50
2022-12-05T01:24:01.650Z,5.20
2022-12-05T01:26:29.168Z,5.10
2022-12-05T01:28:56.835Z,4.90
2022-12-05T01:31:30.263Z,4.80
2022-12-05T01:34:00.041Z,4.70
2022-12-05T01:36:28.277Z,4.60
2022-12-05T01:38:56.314Z,4.50
2022-12-05T01:41:27.939Z,4.50
2022-12-05T01:44:26.946Z,4.50
2022-12-05T01:46:56.643Z,4.40
2022-12-05T01:49:31.408Z,4.40
2022-12-05T01:52:03.505Z,4.40
2022-12-05T01:54:30.747Z,4.40
2022-12-05T01:57:04.132Z,4.40
2022-12-05T01:59:35.963Z,4.40
2022-12-05T02:02:04.160Z,4.40
2022-12-05T02:04:35.533Z,4.40
2022-12-05T02:07:02.918Z,4.40
2022-12-05T02:09:30.305Z,4.40
2022-12-05T02:12:01.889Z,4.40
2022-12-05T02:14:46.289Z,4.40
2022-12-05T02:17:24.198Z,4.40
2022-12-05T02:20:20.084Z,4.30
2022-12-05T02:23:26.067Z,4.30
2022-12-05T02:26:25.642Z,4.20
2022-12-05T02:29:22.909Z,4.20
2022-12-05T02:32:18.069Z,4.10
2022-12-05T02:35:26.208Z,4.10
2022-12-05T02:38:13.721Z,4.10
2022-12-05T02:41:06.748Z,4.10
2022-12-05T02:44:02.076Z,4.10
2022-12-05T02:46:31.593Z,4.10
2022-12-05T02:49:03.632Z,4.10
2022-12-05T02:51:36.649Z,4.10
2022-12-05T02:57:57.657Z,4.10
2022-12-05T03:00:25.034Z,4.20
2022-12-05T03:02:56.493Z,4.20
2022-12-05T03:05:37.816Z,4.20
2022-12-05T03:08:08.033Z,4.20
2022-12-05T03:10:38.342Z,4.20
2022-12-05T03:13:21.251Z,4.20
2022-12-05T03:15:53.142Z,4.20
2022-12-05T03:18:33.886Z,4.20
2022-12-05T03:21:38.948Z,4.20
2022-12-05T03:24:13.701Z,4.10
2022-12-05T03:27:10.342Z,4.20
2022-12-05T03:29:58.668Z,4.20
2022-12-05T03:32:38.789Z,4.10
2022-12-05T03:35:50.495Z,4.10
2022-12-05T03:38:30.095Z,4.10
2022-12-05T03:41:23.054Z,4.00
2022-12-05T03:44:13.764Z,4.00
2022-12-05T03:46:48.351Z,4.00
2022-12-05T03:49:39.531Z,4.00
2022-12-05T03:52:20.533Z,4.00
2022-12-05T03:54:56.041Z,4.00
2022-12-05T03:57:28.929Z,4.00
2022-12-05T04:00:01.664Z,4.00
2022-12-05T04:02:45.613Z,4.00
2022-12-05T04:05:26.751Z,4.00
2022-12-05T04:08:03.153Z,4.00
2022-12-05T04:10:48.533Z,4.10
2022-12-05T04:13:19.107Z,4.10
2022-12-05T04:16:11.971Z,4.00
2022-12-05T04:18:46.707Z,4.10
2022-12-05T04:21:34.095Z,4.00
2022-12-05T04:24:20.282Z,4.00
2022-12-05T04:26:53.358Z,4.00
2022-12-05T04:29:34.455Z,4.00
2022-12-05T04:32:07.014Z,4.00
2022-12-05T04:34:37.786Z,4.00
2022-12-05T04:37:12.949Z,4.00
2022-12-05T04:39:57.049Z,4.00
2022-12-05T04:42:28.304Z,4.00
2022-12-05T04:45:00.827Z,4.00
2022-12-05T04:47:32.775Z,4.00
2022-12-05T04:50:01.969Z,4.00
2022-12-05T04:52:31.447Z,4.00
2022-12-05T04:55:10.340Z,4.00
2022-12-05T04:58:00.223Z,4.00
2022-12-05T05:00:32.111Z,4.00
2022-12-05T05:03:07.312Z,4.00
2022-12-05T05:05:37.762Z,4.00
2022-12-05T05:08:05.580Z,4.00
2022-12-05T05:10:49.415Z,4.00
2022-12-05T05:13:16.773Z,4.00
2022-12-05T05:15:44.131Z,4.00
2022-12-05T05:18:11.576Z,4.00
2022-12-05T05:20:39.229Z,4.00
2022-12-05T05:23:06.606Z,4.00
2022-12-05T05:25:33.998Z,4.00
2022-12-05T05:28:01.728Z,4.10
2022-12-05T05:30:29.261Z,4.00
2022-12-05T05:32:56.605Z,4.00
2022-12-05T05:35:23.942Z,4.00
2022-12-05T05:37:54.425Z,4.10
2022-12-05T05:40:21.827Z,4.10
2022-12-05T05:42:51.008Z,4.10
2022-12-05T05:45:18.399Z,4.10
2022-12-05T05:47:48.718Z,4.00
2022-12-05T05:50:21.520Z,4.00
2022-12-05T05:52:49.506Z,4.10
2022-12-05T05:55:16.858Z,4.10
2022-12-05T05:57:44.366Z,4.10
2022-12-05T06:00:12.516Z,4.10
2022-12-05T06:02:40.258Z,4.10
2022-12-05T06:05:08.225Z,4.10
2022-12-05T06:07:35.678Z,4.10
2022-12-05T06:10:03.754Z,4.00
2022-12-05T06:12:31.216Z,4.10
2022-12-05T06:14:59.290Z,4.10
2022-12-05T06:17:26.726Z,4.10
2022-12-05T06:19:54.133Z,4.10
2022-12-05T06:22:21.490Z,4.10
2022-12-05T06:24:48.821Z,4.20
2022-12-05T06:27:16.426Z,4.10
2022-12-05T06:29:43.861Z,4.10
2022-12-05T06:32:11.289Z,4.10
2022-12-05T06:34:38.769Z,4.20
2022-12-05T06:37:06.335Z,4.10
2022-12-05T06:39:34.352Z,4.10
2022-12-05T06:42:03.616Z,4.10
2022-12-05T06:44:31.326Z,4.10
2022-12-05T06:46:58.945Z,4.20
2022-12-05T06:49:36.384Z,4.20
2022-12-05T06:52:05.605Z,4.10
2022-12-05T06:54:33.288Z,4.10
2022-12-05T06:57:01.205Z,4.10
2022-12-05T06:59:28.774Z,4.10
2022-12-05T07:01:57.518Z,4.20
2022-12-05T07:04:24.917Z,4.20
2022-12-05T07:06:54.704Z,4.20
2022-12-05T07:09:46.108Z,4.20
2022-12-05T07:12:15.424Z,4.20
2022-12-05T07:14:48.617Z,4.20
2022-12-05T07:17:21.182Z,4.20
2022-12-05T07:19:50.004Z,4.20
2022-12-05T07:22:20.974Z,4.30
2022-12-05T07:24:51.054Z,4.30
2022-12-05T07:27:23.295Z,4.30
2022-12-05T07:29:54.623Z,4.40
2022-12-05T07:32:22.175Z,4.40
2022-12-05T07:34:54.781Z,4.40
2022-12-05T07:37:24.025Z,4.40
2022-12-05T07:39:55.247Z,4.50
2022-12-05T07:42:23.066Z,4.50
2022-12-05T07:44:50.621Z,4.50
2022-12-05T07:47:18.451Z,4.50
2022-12-05T07:49:46.244Z,4.50
2022-12-05T07:52:13.861Z,4.50
2022-12-05T07:54:41.668Z,4.50
2022-12-05T07:57:09.480Z,4.50
2022-12-05T07:59:37.740Z,4.50
2022-12-05T08:02:05.608Z,4.50
2022-12-05T08:04:33.056Z,4.50
2022-12-05T08:07:00.504Z,4.50
2022-12-05T08:09:27.821Z,4.50
2022-12-05T08:11:55.277Z,4.60
2022-12-05T08:14:22.704Z,4.60
2022-12-05T08:16:50.207Z,4.60
2022-12-05T08:19:17.773Z,4.70
2022-12-05T08:21:45.378Z,4.60
2022-12-05T08:24:13.106Z,4.60
2022-12-05T08:26:41.900Z,4.70
2022-12-05T08:29:12.179Z,4.70
2022-12-05T08:31:47.327Z,4.80
2022-12-05T08:34:16.233Z,4.80
2022-12-05T08:36:43.814Z,4.90
2022-12-05T08:39:15.104Z,4.90
2022-12-05T08:41:46.583Z,5.00
2022-12-05T08:44:18.894Z,5.00
2022-12-05T08:46:48.825Z,5.10
2022-12-05T08:49:17.146Z,5.00
2022-12-05T08:51:45.134Z,5.10
2022-12-05T08:54:12.763Z,5.10
2022-12-05T08:56:40.476Z,5.20
2022-12-05T08:59:07.892Z,5.20
2022-12-05T09:01:38.764Z,5.30
2022-12-05T09:04:07.457Z,5.30
2022-12-05T09:06:36.468Z,5.30
2022-12-05T09:09:08.362Z,5.30
2022-12-05T09:11:41.215Z,5.30
2022-12-05T09:14:09.066Z,5.30
2022-12-05T09:16:39.238Z,5.30
2022-12-05T09:19:17.120Z,5.30
2022-12-05T09:21:45.008Z,5.30
2022-12-05T09:24:13.608Z,5.30
2022-12-05T09:26:41.863Z,5.30
2022-12-05T09:29:16.335Z,5.40
2022-12-05T09:31:46.352Z,5.30
2022-12-05T09:34:14.966Z,5.40
2022-12-05T09:36:42.898Z,5.30
2022-12-05T09:39:11.018Z,5.40
2022-12-05T09:42:05.070Z,5.40
2022-12-05T09:45:15.326Z,5.40
2022-12-05T09:48:15.719Z,5.40
2022-12-05T09:50:50.072Z,5.40
2022-12-05T09:53:30.875Z,5.40
2022-12-05T09:56:21.258Z,5.50
2022-12-05T09:58:53.732Z,5.50
2022-12-05T10:02:02.311Z,5.50
2022-12-05T10:05:00.357Z,5.60
2022-12-05T10:07:41.218Z,5.60
2022-12-05T10:10:49.023Z,5.70
2022-12-05T10:13:33.298Z,5.70
2022-12-05T10:16:13.719Z,5.70
2022-12-05T10:18:47.123Z,5.80
2022-12-05T10:21:26.575Z,5.80
2022-12-05T10:24:05.126Z,5.80
2022-12-05T10:26:59.611Z,5.80
2022-12-05T10:30:00.021Z,5.80
2022-12-05T10:32:37.592Z,5.90
2022-12-05T10:35:15.437Z,5.80
2022-12-05T10:37:55.838Z,5.80
2022-12-05T10:40:26.399Z,5.80
2022-12-05T10:42:54.119Z,5.80
2022-12-05T10:45:23.869Z,5.70
2022-12-05T10:47:56.102Z,5.70
2022-12-05T10:50:34.066Z,5.80
2022-12-05T10:53:04.169Z,5.80
2022-12-05T10:55:41.221Z,5.70
2022-12-05T10:58:18.006Z,5.80
2022-12-05T11:00:49.005Z,5.90
2022-12-05T11:03:30.670Z,5.90
2022-12-05T11:06:02.274Z,5.90
2022-12-05T11:09:03.232Z,5.90
2022-12-05T11:11:24.279Z,5.90
2022-12-05T11:13:56.954Z,6.00
2022-12-05T11:16:35.973Z,5.90
2022-12-05T11:19:42.217Z,6.00
2022-12-05T11:22:17.207Z,6.10
2022-12-05T11:24:44.628Z,6.20
2022-12-05T11:27:32.262Z,6.30
2022-12-05T11:30:13.730Z,6.30
2022-12-05T11:32:41.148Z,6.30
2022-12-05T11:35:28.861Z,6.30
2022-12-05T11:38:03.007Z,6.20
2022-12-05T11:41:10.278Z,6.20
2022-12-05T11:43:46.120Z,6.20
2022-12-05T11:46:37.746Z,6.10
2022-12-05T11:49:47.184Z,6.20
2022-12-05T11:52:54.607Z,6.20
2022-12-05T11:55:33.835Z,6.20
2022-12-05T11:58:52.349Z,6.30
2022-12-05T12:01:56.156Z,6.30
2022-12-05T12:04:51.805Z,6.30
2022-12-05T12:07:38.317Z,6.30
2022-12-05T12:10:51.250Z,6.40
2022-12-05T12:13:55.380Z,6.40
2022-12-05T12:17:07.862Z,6.40
2022-12-05T12:20:30.042Z,6.50
2022-12-05T12:35:16.826Z,6.40
2022-12-05T12:38:26.678Z,6.40
2022-12-05T12:40:58.313Z,6.40
2022-12-05T12:44:02.283Z,6.40
2022-12-05T12:46:59.425Z,6.30
2022-12-05T12:50:17.167Z,6.30
2022-12-05T12:53:23.487Z,6.30
2022-12-05T12:56:28.618Z,6.40
2022-12-05T13:02:47.897Z,6.40
2022-12-05T13:05:34.615Z,6.40
2022-12-05T13:08:07.427Z,6.30
2022-12-05T13:10:42.754Z,6.30
2022-12-05T13:13:19.375Z,6.30
2022-12-05T13:16:02.036Z,6.30
2022-12-05T13:18:30.364Z,6.30
2022-12-05T13:21:03.536Z,6.30
2022-12-05T13:23:40.994Z,6.30
2022-12-05T13:26:11.074Z,6.30
2022-12-05T13:28:59.582Z,6.30
2022-12-05T13:34:52.261Z,6.30
2022-12-05T13:37:46.971Z,6.40
2022-12-05T13:40:51.735Z,6.50
2022-12-05T13:43:22.766Z,6.40
2022-12-05T13:46:12.004Z,6.40
2022-12-05T13:48:45.157Z,6.40
2022-12-05T13:51:21.427Z,6.30
2022-12-05T13:53:58.265Z,6.30
2022-12-05T13:56:45.836Z,6.20
2022-12-05T13:59:13.284Z,6.20
2022-12-05T14:01:55.390Z,6.20
2022-12-05T14:04:51.108Z,6.20
2022-12-05T14:08:03.588Z,6.20
2022-12-05T14:11:11.927Z,6.20
2022-12-05T14:13:42.132Z,6.10
2022-12-05T14:16:24.576Z,6.10
2022-12-05T14:19:50.587Z,6.10
2022-12-05T14:22:47.603Z,6.10
2022-12-05T14:25:57.689Z,6.10
2022-12-05T14:28:47.968Z,6.00
2022-12-05T14:31:34.372Z,6.10
2022-12-05T14:34:25.283Z,6.10
2022-12-05T14:40:02.308Z,6.10
2022-12-05T14:42:43.137Z,6.00
2022-12-05T14:48:47.556Z,6.00
2022-12-05T14:57:21.814Z,5.90
2022-12-05T15:00:00.477Z,6.00
2022-12-05T15:02:36.091Z,6.00
2022-12-05T15:05:23.730Z,6.00
2022-12-05T15:07:52.028Z,6.00
2022-12-05T15:10:50.384Z,6.00
2022-12-05T15:13:21.246Z,6.00
2022-12-05T15:16:19.803Z,5.90
2022-12-05T15:18:50.686Z,5.80
2022-12-05T15:21:44.534Z,5.80
2022-12-05T15:24:18.978Z,5.80
2022-12-05T15:26:58.596Z,5.80
2022-12-05T15:29:29.228Z,5.80
2022-12-05T15:32:19.019Z,5.80
2022-12-05T15:35:00.203Z,5.80
2022-12-05T15:37:35.306Z,5.80
2022-12-05T15:40:14.245Z,5.90
2022-12-05T15:42:57.980Z,5.80
2022-12-05T15:45:30.727Z,5.80
2022-12-05T15:48:12.764Z,5.70
2022-12-05T15:50:43.403Z,5.70
2022-12-05T15:53:32.150Z,5.80
2022-12-05T15:56:09.628Z,5.70
2022-12-05T15:58:43.494Z,5.80
2022-12-05T16:01:22.886Z,5.70
2022-12-05T16:04:11.774Z,5.70
2022-12-05T16:06:49.734Z,5.70
2022-12-05T16:09:22.162Z,5.70
2022-12-05T16:12:16.939Z,5.70
2022-12-05T16:15:01.370Z,5.70
2022-12-05T16:17:41.083Z,5.70
2022-12-05T16:20:30.701Z,5.60
2022-12-05T16:23:05.186Z,5.60
2022-12-05T16:25:37.146Z,5.60
2022-12-05T16:28:33.654Z,5.50
2022-12-05T16:31:03.433Z,5.50
2022-12-05T16:33:31.917Z,5.50
2022-12-05T16:36:13.230Z,5.50
2022-12-05T16:38:45.340Z,5.50
2022-12-05T16:41:16.253Z,5.50
2022-12-05T16:43:45.977Z,5.50
2022-12-05T16:46:43.307Z,5.50
2022-12-05T16:49:34.583Z,5.40
2022-12-05T16:52:14.715Z,5.40
2022-12-05T16:54:46.206Z,5.40
2022-12-05T16:57:15.596Z,5.30
2022-12-05T16:59:44.160Z,5.40
2022-12-05T17:02:17.502Z,5.30
2022-12-05T17:04:47.037Z,5.30
2022-12-05T17:07:14.537Z,5.30
2022-12-05T17:09:42.052Z,5.30
2022-12-05T17:12:20.714Z,5.30
2022-12-05T17:14:48.425Z,5.30
2022-12-05T17:17:19.168Z,5.30
2022-12-05T17:19:46.708Z,5.30
2022-12-05T17:22:15.924Z,5.30
2022-12-05T17:24:43.607Z,5.40
2022-12-05T17:27:14.387Z,5.40
2022-12-05T17:29:41.911Z,5.40
2022-12-05T17:32:10.702Z,5.50
2022-12-05T17:34:38.016Z,5.50
2022-12-05T17:37:05.559Z,5.50
2022-12-05T17:39:32.895Z,5.40
2022-12-05T17:42:00.389Z,5.50
2022-12-05T17:44:27.963Z,5.40
2022-12-05T17:46:55.712Z,5.50
2022-12-05T17:49:23.270Z,5.50
2022-12-05T17:52:20.470Z,5.50
2022-12-05T17:54:41.222Z,5.50
2022-12-05T17:57:08.646Z,5.50
2022-12-05T17:59:36.054Z,5.50
2022-12-05T18:02:03.528Z,5.60
2022-12-05T18:04:30.920Z,5.50
2022-12-05T18:06:58.397Z,5.50
2022-12-05T18:09:25.825Z,5.40
2022-12-05T18:11:53.201Z,5.40
2022-12-05T18:14:20.530Z,5.40
2022-12-05T18:16:48.064Z,5.40
2022-12-05T18:19:15.549Z,5.40
2022-12-05T18:21:43.119Z,5.40
2022-12-05T18:24:10.892Z,5.30
2022-12-05T18:26:38.781Z,5.30
2022-12-05T18:29:06.117Z,5.30
2022-12-05T18:31:33.735Z,5.30
2022-12-05T18:34:01.141Z,5.30
2022-12-05T18:36:28.726Z,5.30
2022-12-05T18:38:57.823Z,5.30
2022-12-05T18:41:29.125Z,5.20
2022-12-05T18:43:56.609Z,5.20
2022-12-05T18:46:24.786Z,5.10
2022-12-05T18:48:52.292Z,5.00
2022-12-05T18:51:24.321Z,5.10
2022-12-05T18:53:53.617Z,5.00
2022-12-05T18:56:25.142Z,5.00
2022-12-05T18:58:55.306Z,4.90
2022-12-05T19:01:23.486Z,4.90
2022-12-05T19:03:51.136Z,4.90
2022-12-05T19:06:23.906Z,4.90
2022-12-05T19:08:55.445Z,4.80
2022-12-05T19:11:23.780Z,4.80
2022-12-05T19:13:57.599Z,4.70
2022-12-05T19:16:26.474Z,4.70
2022-12-05T19:18:56.067Z,4.70
2022-12-05T19:21:24.806Z,4.60
2022-12-05T19:23:53.082Z,4.60
2022-12-05T19:26:21.316Z,4.60
2022-12-05T19:28:49.316Z,4.60
2022-12-05T19:31:20.525Z,4.60
2022-12-05T19:33:54.724Z,4.60
2022-12-05T19:36:31.701Z,4.60
2022-12-05T19:38:59.749Z,4.50
2022-12-05T19:41:30.450Z,4.40
2022-12-05T19:44:01.800Z,4.40
2022-12-05T19:46:31.054Z,4.30
2022-12-05T19:49:04.107Z,4.30
2022-12-05T19:51:33.113Z,4.30
2022-12-05T19:54:02.476Z,4.30
2022-12-05T19:56:31.502Z,4.30
2022-12-05T19:58:59.730Z,4.40
2022-12-05T20:01:30.652Z,4.40
2022-12-05T20:04:00.524Z,4.40
2022-12-05T20:06:35.063Z,4.30
2022-12-05T20:09:03.391Z,4.30
2022-12-05T20:11:31.567Z,4.30
2022-12-05T20:14:00.811Z,4.30
2022-12-05T20:16:29.317Z,4.40
2022-12-05T20:18:59.473Z,4.40
2022-12-05T20:21:30.479Z,4.50
2022-12-05T20:24:00.880Z,4.60
2022-12-05T20:26:30.946Z,4.60
2022-12-05T20:28:59.410Z,4.60
2022-12-05T20:31:32.757Z,4.60
2022-12-05T20:34:00.399Z,4.50
2022-12-05T20:36:32.365Z,4.50
2022-12-05T20:39:06.542Z,4.50
2022-12-05T20:41:34.529Z,4.40
2022-12-05T20:44:05.008Z,4.40
2022-12-05T20:46:32.937Z,4.40
2022-12-05T20:49:00.513Z,4.40
2022-12-05T20:51:32.978Z,4.50
2022-12-05T20:54:02.283Z,4.60
2022-12-05T20:56:32.288Z,4.50
2022-12-05T20:59:02.210Z,4.50
2022-12-05T21:01:31.843Z,4.50
2022-12-05T21:03:59.989Z,4.50
2022-12-05T21:06:40.576Z,4.50
2022-12-05T21:09:18.440Z,4.50
2022-12-05T21:11:45.903Z,4.50
2022-12-05T21:14:13.404Z,4.60
2022-12-05T21:16:41.086Z,4.60
2022-12-05T21:19:08.931Z,4.60
2022-12-05T21:21:36.477Z,4.60
2022-12-05T21:24:05.336Z,4.60
2022-12-05T21:26:35.113Z,4.60
2022-12-05T21:29:03.864Z,4.50
2022-12-05T21:31:37.762Z,4.50
2022-12-05T21:34:09.096Z,4.40
2022-12-05T21:36:37.580Z,4.50
2022-12-05T21:39:08.871Z,4.40
2022-12-05T21:41:36.283Z,4.40
2022-12-05T21:44:04.173Z,4.40
2022-12-05T21:46:31.970Z,4.40
2022-12-05T21:48:59.582Z,4.40
2022-12-05T21:51:27.046Z,4.40
2022-12-05T21:53:54.593Z,4.40
2022-12-05T21:56:23.601Z,4.30
2022-12-05T21:58:51.602Z,4.30
2022-12-05T22:01:21.874Z,4.20
2022-12-05T22:03:52.815Z,4.10
2022-12-05T22:06:20.805Z,4.10
2022-12-05T22:08:48.501Z,4.10
2022-12-05T22:11:21.903Z,4.10
2022-12-05T22:13:49.940Z,4.10
2022-12-05T22:16:18.152Z,4.10
2022-12-05T22:18:46.381Z,4.10
2022-12-05T22:21:16.578Z,4.10
2022-12-05T22:23:44.131Z,4.10
2022-12-05T22:26:17.311Z,4.10
2022-12-05T22:28:45.362Z,4.10
2022-12-05T22:31:17.395Z,4.20
2022-12-05T22:33:44.923Z,4.20
2022-12-05T22:36:15.206Z,4.20
2022-12-05T22:38:45.025Z,4.10
2022-12-05T22:41:15.467Z,4.20
2022-12-05T22:43:45.024Z,4.20
2022-12-05T22:46:15.001Z,4.20
2022-12-05T22:48:42.527Z,4.20
2022-12-05T22:51:10.323Z,4.20
2022-12-05T22:53:38.628Z,4.20
2022-12-05T22:56:14.692Z,4.20
2022-12-05T22:58:43.184Z,4.20
2022-12-05T23:01:22.528Z,4.20
2022-12-05T23:03:56.871Z,4.10
2022-12-05T23:06:24.570Z,4.10
2022-12-05T23:08:52.770Z,4.10
2022-12-05T23:11:21.024Z,4.10
2022-12-05T23:13:49.452Z,4.10
2022-12-05T23:16:22.588Z,4.20
2022-12-05T23:18:50.985Z,4.20
2022-12-05T23:21:36.855Z,4.10
2022-12-05T23:24:07.846Z,4.10
2022-12-05T23:26:44.335Z,4.10
2022-12-05T23:29:12.709Z,4.10
2022-12-05T23:31:41.006Z,4.10
2022-12-05T23:34:08.975Z,4.10
2022-12-05T23:36:36.791Z,4.20
2022-12-05T23:39:05.973Z,4.20
2022-12-05T23:41:33.601Z,4.10
2022-12-05T23:44:01.045Z,4.20
2022-12-05T23:46:29.220Z,4.20
2022-12-05T23:48:58.120Z,4.20
2022-12-05T23:51:28.833Z,4.30
2022-12-05T23:53:58.830Z,4.20
2022-12-05T23:56:28.812Z,4.30
2022-12-05T23:58:57.190Z,4.30
